sensor_id;sensor_type;location;lat;lon;timestamp;P1;durP1;ratioP1;P2;durP2;ratioP2
13807;SDS011;40769;51.512;5.494;2024-01-15T00:01:49;12.15;;;10.85;;
13807;SDS011;40769;51.512;5.494;2024-01-15T00:04:14;12.73;;;10.70;;
13807;SDS011;40769;51.512;5.494;2024-01-15T00:06:40;14.32;;;12.32;;
13807;SDS011;40769;51.512;5.494;2024-01-15T00:09:06;13.95;;;11.73;;
13807;SDS011;40769;51.512;5.494;2024-01-15T00:11:31;14.02;;;12.02;;
13807;SDS011;40769;51.512;5.494;2024-01-15T00:13:57;14.73;;;12.75;;
13807;SDS011;40769;51.512;5.494;2024-01-15T00:16:23;13.98;;;12.48;;
13807;SDS011;40769;51.512;5.494;2024-01-15T00:18:49;14.63;;;12.48;;
13807;SDS011;40769;51.512;5.494;2024-01-15T00:21:14;14.10;;;11.52;;
13807;SDS011;40769;51.512;5.494;2024-01-15T00:23:43;14.73;;;12.40;;
13807;SDS011;40769;51.512;5.494;2024-01-15T00:26:09;12.50;;;11.20;;
13807;SDS011;40769;51.512;5.494;2024-01-15T00:28:36;20.02;;;13.65;;
13807;SDS011;40769;51.512;5.494;2024-01-15T00:31:02;15.40;;;12.38;;
13807;SDS011;40769;51.512;5.494;2024-01-15T00:33:28;14.48;;;12.02;;
13807;SDS011;40769;51.512;5.494;2024-01-15T00:35:54;12.35;;;10.77;;
13807;SDS011;40769;51.512;5.494;2024-01-15T00:38:20;14.10;;;11.45;;
13807;SDS011;40769;51.512;5.494;2024-01-15T00:40:45;13.10;;;11.23;;
13807;SDS011;40769;51.512;5.494;2024-01-15T00:43:11;12.63;;;10.52;;
13807;SDS011;40769;51.512;5.494;2024-01-15T00:45:37;10.27;;;8.82;;
13807;SDS011;40769;51.512;5.494;2024-01-15T00:48:03;10.18;;;8.93;;
13807;SDS011;40769;51.512;5.494;2024-01-15T00:50:29;10.98;;;9.23;;
13807;SDS011;40769;51.512;5.494;2024-01-15T00:52:54;11.50;;;8.95;;
13807;SDS011;40769;51.512;5.494;2024-01-15T00:55:20;10.88;;;9.13;;
13807;SDS011;40769;51.512;5.494;2024-01-15T00:57:45;9.82;;;7.80;;
13807;SDS011;40769;51.512;5.494;2024-01-15T01:00:11;8.50;;;7.38;;
13807;SDS011;40769;51.512;5.494;2024-01-15T01:02:37;8.50;;;6.82;;
13807;SDS011;40769;51.512;5.494;2024-01-15T01:05:03;8.02;;;6.13;;
13807;SDS011;40769;51.512;5.494;2024-01-15T01:07:29;7.25;;;5.50;;
13807;SDS011;40769;51.512;5.494;2024-01-15T01:09:54;6.28;;;4.82;;
13807;SDS011;40769;51.512;5.494;2024-01-15T01:12:20;5.00;;;3.85;;
13807;SDS011;40769;51.512;5.494;2024-01-15T01:14:46;4.97;;;3.58;;
13807;SDS011;40769;51.512;5.494;2024-01-15T01:17:11;3.88;;;3.00;;
13807;SDS011;40769;51.512;5.494;2024-01-15T01:19:37;3.47;;;2.63;;
13807;SDS011;40769;51.512;5.494;2024-01-15T01:22:03;4.68;;;2.25;;
13807;SDS011;40769;51.512;5.494;2024-01-15T01:24:31;2.25;;;1.80;;
13807;SDS011;40769;51.512;5.494;2024-01-15T01:26:57;2.75;;;1.50;;
13807;SDS011;40769;51.512;5.494;2024-01-15T01:29:22;2.42;;;1.40;;
13807;SDS011;40769;51.512;5.494;2024-01-15T01:31:48;2.22;;;1.30;;
13807;SDS011;40769;51.512;5.494;2024-01-15T01:34:14;3.00;;;1.20;;
13807;SDS011;40769;51.512;5.494;2024-01-15T01:36:44;2.05;;;1.17;;
13807;SDS011;40769;51.512;5.494;2024-01-15T01:39:10;1.83;;;1.02;;
13807;SDS011;40769;51.512;5.494;2024-01-15T01:41:36;2.65;;;1.35;;
13807;SDS011;40769;51.512;5.494;2024-01-15T01:44:03;1.25;;;0.90;;
13807;SDS011;40769;51.512;5.494;2024-01-15T01:46:28;1.42;;;1.02;;
13807;SDS011;40769;51.512;5.494;2024-01-15T01:48:54;1.30;;;1.10;;
13807;SDS011;40769;51.512;5.494;2024-01-15T01:51:24;1.58;;;1.17;;
13807;SDS011;40769;51.512;5.494;2024-01-15T01:53:50;1.67;;;0.90;;
13807;SDS011;40769;51.512;5.494;2024-01-15T01:56:16;1.25;;;0.90;;
13807;SDS011;40769;51.512;5.494;2024-01-15T01:58:43;1.27;;;0.75;;
13807;SDS011;40769;51.512;5.494;2024-01-15T02:01:10;18.52;;;3.10;;
13807;SDS011;40769;51.512;5.494;2024-01-15T02:03:38;3.85;;;1.25;;
13807;SDS011;40769;51.512;5.494;2024-01-15T02:06:05;1.17;;;0.90;;
13807;SDS011;40769;51.512;5.494;2024-01-15T02:08:30;1.30;;;0.80;;
13807;SDS011;40769;51.512;5.494;2024-01-15T02:10:57;1.70;;;0.93;;
13807;SDS011;40769;51.512;5.494;2024-01-15T02:13:23;1.10;;;0.90;;
13807;SDS011;40769;51.512;5.494;2024-01-15T02:15:48;1.15;;;0.88;;
13807;SDS011;40769;51.512;5.494;2024-01-15T02:18:14;1.25;;;0.80;;
13807;SDS011;40769;51.512;5.494;2024-01-15T02:20:40;1.75;;;0.90;;
13807;SDS011;40769;51.512;5.494;2024-01-15T02:23:12;1.67;;;0.80;;
13807;SDS011;40769;51.512;5.494;2024-01-15T02:25:42;1.98;;;0.80;;
13807;SDS011;40769;51.512;5.494;2024-01-15T02:28:11;1.85;;;1.00;;
13807;SDS011;40769;51.512;5.494;2024-01-15T02:30:38;0.95;;;0.85;;
13807;SDS011;40769;51.512;5.494;2024-01-15T02:33:05;2.03;;;0.90;;
13807;SDS011;40769;51.512;5.494;2024-01-15T02:35:31;1.42;;;0.70;;
13807;SDS011;40769;51.512;5.494;2024-01-15T02:37:58;2.30;;;0.98;;
13807;SDS011;40769;51.512;5.494;2024-01-15T02:40:24;1.10;;;0.80;;
13807;SDS011;40769;51.512;5.494;2024-01-15T02:42:49;2.58;;;1.20;;
13807;SDS011;40769;51.512;5.494;2024-01-15T02:45:15;1.63;;;0.85;;
13807;SDS011;40769;51.512;5.494;2024-01-15T02:47:42;1.92;;;1.00;;
13807;SDS011;40769;51.512;5.494;2024-01-15T02:50:08;1.58;;;0.80;;
13807;SDS011;40769;51.512;5.494;2024-01-15T02:52:34;0.98;;;0.75;;
13807;SDS011;40769;51.512;5.494;2024-01-15T02:54:59;1.95;;;0.82;;
13807;SDS011;40769;51.512;5.494;2024-01-15T02:57:25;1.20;;;0.82;;
13807;SDS011;40769;51.512;5.494;2024-01-15T02:59:50;1.48;;;0.80;;
13807;SDS011;40769;51.512;5.494;2024-01-15T03:02:16;1.52;;;0.60;;
13807;SDS011;40769;51.512;5.494;2024-01-15T03:04:45;2.70;;;0.88;;
13807;SDS011;40769;51.512;5.494;2024-01-15T03:07:10;1.48;;;0.80;;
13807;SDS011;40769;51.512;5.494;2024-01-15T03:09:36;1.70;;;0.98;;
13807;SDS011;40769;51.512;5.494;2024-01-15T03:12:02;3.28;;;0.90;;
13807;SDS011;40769;51.512;5.494;2024-01-15T03:14:28;1.67;;;0.90;;
13807;SDS011;40769;51.512;5.494;2024-01-15T03:16:53;2.08;;;0.90;;
13807;SDS011;40769;51.512;5.494;2024-01-15T03:19:19;2.92;;;0.73;;
13807;SDS011;40769;51.512;5.494;2024-01-15T03:21:45;1.65;;;0.90;;
13807;SDS011;40769;51.512;5.494;2024-01-15T03:24:10;1.30;;;0.80;;
13807;SDS011;40769;51.512;5.494;2024-01-15T03:26:36;3.67;;;1.00;;
13807;SDS011;40769;51.512;5.494;2024-01-15T03:29:01;2.13;;;1.17;;
13807;SDS011;40769;51.512;5.494;2024-01-15T03:31:27;4.68;;;1.52;;
13807;SDS011;40769;51.512;5.494;2024-01-15T03:33:53;2.22;;;0.90;;
13807;SDS011;40769;51.512;5.494;2024-01-15T03:36:18;2.95;;;1.08;;
13807;SDS011;40769;51.512;5.494;2024-01-15T03:38:47;1.83;;;0.90;;
13807;SDS011;40769;51.512;5.494;2024-01-15T03:41:12;1.85;;;0.95;;
13807;SDS011;40769;51.512;5.494;2024-01-15T03:43:38;1.40;;;0.98;;
13807;SDS011;40769;51.512;5.494;2024-01-15T03:46:05;1.63;;;0.80;;
13807;SDS011;40769;51.512;5.494;2024-01-15T03:48:30;1.48;;;0.80;;
13807;SDS011;40769;51.512;5.494;2024-01-15T03:50:56;2.25;;;0.90;;
13807;SDS011;40769;51.512;5.494;2024-01-15T03:53:22;2.40;;;1.10;;
13807;SDS011;40769;51.512;5.494;2024-01-15T03:55:48;2.55;;;0.80;;
13807;SDS011;40769;51.512;5.494;2024-01-15T03:58:14;2.05;;;0.80;;
13807;SDS011;40769;51.512;5.494;2024-01-15T04:00:40;1.98;;;0.88;;
13807;SDS011;40769;51.512;5.494;2024-01-15T04:03:06;1.50;;;1.02;;
13807;SDS011;40769;51.512;5.494;2024-01-15T04:05:31;6.90;;;1.17;;
13807;SDS011;40769;51.512;5.494;2024-01-15T04:07:57;3.95;;;1.20;;
13807;SDS011;40769;51.512;5.494;2024-01-15T04:10:23;4.75;;;1.10;;
13807;SDS011;40769;51.512;5.494;2024-01-15T04:12:48;2.60;;;1.10;;
13807;SDS011;40769;51.512;5.494;2024-01-15T04:15:14;3.85;;;1.20;;
13807;SDS011;40769;51.512;5.494;2024-01-15T04:17:40;2.35;;;1.10;;
13807;SDS011;40769;51.512;5.494;2024-01-15T04:20:06;1.15;;;0.50;;
13807;SDS011;40769;51.512;5.494;2024-01-15T04:22:32;2.60;;;1.10;;
13807;SDS011;40769;51.512;5.494;2024-01-15T04:25:01;2.95;;;0.95;;
13807;SDS011;40769;51.512;5.494;2024-01-15T04:27:27;2.85;;;1.00;;
13807;SDS011;40769;51.512;5.494;2024-01-15T04:29:53;2.45;;;1.30;;
13807;SDS011;40769;51.512;5.494;2024-01-15T04:32:19;2.13;;;0.93;;
13807;SDS011;40769;51.512;5.494;2024-01-15T04:34:45;2.75;;;1.10;;
13807;SDS011;40769;51.512;5.494;2024-01-15T04:37:10;1.83;;;0.95;;
13807;SDS011;40769;51.512;5.494;2024-01-15T04:39:36;2.25;;;0.82;;
13807;SDS011;40769;51.512;5.494;2024-01-15T04:42:02;2.72;;;1.23;;
13807;SDS011;40769;51.512;5.494;2024-01-15T04:44:28;1.70;;;0.90;;
13807;SDS011;40769;51.512;5.494;2024-01-15T04:46:54;2.30;;;0.77;;
13807;SDS011;40769;51.512;5.494;2024-01-15T04:49:19;2.10;;;0.68;;
13807;SDS011;40769;51.512;5.494;2024-01-15T04:51:45;1.70;;;0.70;;
13807;SDS011;40769;51.512;5.494;2024-01-15T04:54:11;3.20;;;1.30;;
13807;SDS011;40769;51.512;5.494;2024-01-15T04:56:37;1.88;;;0.90;;
13807;SDS011;40769;51.512;5.494;2024-01-15T04:59:02;0.82;;;0.60;;
13807;SDS011;40769;51.512;5.494;2024-01-15T05:01:31;1.67;;;0.80;;
13807;SDS011;40769;51.512;5.494;2024-01-15T05:03:57;0.70;;;0.57;;
13807;SDS011;40769;51.512;5.494;2024-01-15T05:06:23;1.10;;;0.45;;
13807;SDS011;40769;51.512;5.494;2024-01-15T05:08:49;1.35;;;0.60;;
13807;SDS011;40769;51.512;5.494;2024-01-15T05:11:15;0.70;;;0.50;;
13807;SDS011;40769;51.512;5.494;2024-01-15T05:13:40;1.20;;;0.60;;
13807;SDS011;40769;51.512;5.494;2024-01-15T05:16:06;0.88;;;0.57;;
13807;SDS011;40769;51.512;5.494;2024-01-15T05:18:34;1.23;;;0.40;;
13807;SDS011;40769;51.512;5.494;2024-01-15T05:21:02;1.45;;;0.47;;
13807;SDS011;40769;51.512;5.494;2024-01-15T05:23:28;1.08;;;0.60;;
13807;SDS011;40769;51.512;5.494;2024-01-15T05:25:54;0.70;;;0.40;;
13807;SDS011;40769;51.512;5.494;2024-01-15T05:28:22;1.00;;;0.52;;
13807;SDS011;40769;51.512;5.494;2024-01-15T05:30:48;0.93;;;0.50;;
13807;SDS011;40769;51.512;5.494;2024-01-15T05:33:15;1.00;;;0.40;;
13807;SDS011;40769;51.512;5.494;2024-01-15T05:35:44;1.05;;;0.60;;
13807;SDS011;40769;51.512;5.494;2024-01-15T05:38:10;1.25;;;0.60;;
13807;SDS011;40769;51.512;5.494;2024-01-15T05:40:35;0.90;;;0.60;;
13807;SDS011;40769;51.512;5.494;2024-01-15T05:43:01;1.15;;;0.60;;
13807;SDS011;40769;51.512;5.494;2024-01-15T05:45:27;0.80;;;0.50;;
13807;SDS011;40769;51.512;5.494;2024-01-15T05:47:54;0.85;;;0.63;;
13807;SDS011;40769;51.512;5.494;2024-01-15T05:50:19;1.95;;;0.80;;
13807;SDS011;40769;51.512;5.494;2024-01-15T05:52:45;0.80;;;0.60;;
13807;SDS011;40769;51.512;5.494;2024-01-15T05:55:10;1.25;;;0.70;;
13807;SDS011;40769;51.512;5.494;2024-01-15T05:57:36;1.25;;;0.70;;
13807;SDS011;40769;51.512;5.494;2024-01-15T06:00:03;1.17;;;0.65;;
13807;SDS011;40769;51.512;5.494;2024-01-15T06:02:29;1.10;;;0.70;;
13807;SDS011;40769;51.512;5.494;2024-01-15T06:04:55;1.10;;;0.93;;
13807;SDS011;40769;51.512;5.494;2024-01-15T06:07:20;1.02;;;0.70;;
13807;SDS011;40769;51.512;5.494;2024-01-15T06:09:47;1.52;;;0.80;;
13807;SDS011;40769;51.512;5.494;2024-01-15T06:12:13;1.75;;;0.80;;
13807;SDS011;40769;51.512;5.494;2024-01-15T06:14:39;2.25;;;0.77;;
13807;SDS011;40769;51.512;5.494;2024-01-15T06:17:06;1.55;;;0.70;;
13807;SDS011;40769;51.512;5.494;2024-01-15T06:19:32;2.00;;;1.08;;
13807;SDS011;40769;51.512;5.494;2024-01-15T06:21:57;1.98;;;0.77;;
13807;SDS011;40769;51.512;5.494;2024-01-15T06:24:23;2.63;;;1.10;;
13807;SDS011;40769;51.512;5.494;2024-01-15T06:26:49;7.63;;;2.50;;
13807;SDS011;40769;51.512;5.494;2024-01-15T06:29:14;1.65;;;1.10;;
13807;SDS011;40769;51.512;5.494;2024-01-15T06:31:40;1.98;;;0.93;;
13807;SDS011;40769;51.512;5.494;2024-01-15T06:34:06;1.15;;;0.90;;
13807;SDS011;40769;51.512;5.494;2024-01-15T06:36:31;1.10;;;0.80;;
13807;SDS011;40769;51.512;5.494;2024-01-15T06:38:57;1.77;;;1.10;;
13807;SDS011;40769;51.512;5.494;2024-01-15T06:41:22;1.83;;;0.80;;
13807;SDS011;40769;51.512;5.494;2024-01-15T06:43:50;2.50;;;0.70;;
13807;SDS011;40769;51.512;5.494;2024-01-15T06:46:22;1.25;;;0.85;;
13807;SDS011;40769;51.512;5.494;2024-01-15T06:48:48;1.05;;;0.90;;
13807;SDS011;40769;51.512;5.494;2024-01-15T06:51:14;3.28;;;1.58;;
13807;SDS011;40769;51.512;5.494;2024-01-15T06:53:40;2.05;;;1.50;;
13807;SDS011;40769;51.512;5.494;2024-01-15T06:56:06;1.67;;;1.02;;
13807;SDS011;40769;51.512;5.494;2024-01-15T06:58:32;2.65;;;1.40;;
13807;SDS011;40769;51.512;5.494;2024-01-15T07:00:57;1.00;;;0.80;;
13807;SDS011;40769;51.512;5.494;2024-01-15T07:03:23;1.33;;;1.08;;
13807;SDS011;40769;51.512;5.494;2024-01-15T07:05:49;1.23;;;0.90;;
13807;SDS011;40769;51.512;5.494;2024-01-15T07:08:15;2.65;;;1.35;;
13807;SDS011;40769;51.512;5.494;2024-01-15T07:10:40;1.48;;;0.95;;
13807;SDS011;40769;51.512;5.494;2024-01-15T07:13:06;2.65;;;1.10;;
13807;SDS011;40769;51.512;5.494;2024-01-15T07:15:32;1.60;;;1.00;;
13807;SDS011;40769;51.512;5.494;2024-01-15T07:17:57;1.10;;;1.00;;
13807;SDS011;40769;51.512;5.494;2024-01-15T07:20:23;1.15;;;0.85;;
13807;SDS011;40769;51.512;5.494;2024-01-15T07:22:49;1.35;;;1.00;;
13807;SDS011;40769;51.512;5.494;2024-01-15T07:25:15;0.80;;;0.80;;
13807;SDS011;40769;51.512;5.494;2024-01-15T07:27:41;1.05;;;0.95;;
13807;SDS011;40769;51.512;5.494;2024-01-15T07:30:09;1.08;;;1.00;;
13807;SDS011;40769;51.512;5.494;2024-01-15T07:32:36;0.90;;;0.80;;
13807;SDS011;40769;51.512;5.494;2024-01-15T07:35:02;1.20;;;1.10;;
13807;SDS011;40769;51.512;5.494;2024-01-15T07:37:28;1.20;;;1.10;;
13807;SDS011;40769;51.512;5.494;2024-01-15T07:39:54;1.80;;;1.35;;
13807;SDS011;40769;51.512;5.494;2024-01-15T07:42:20;1.50;;;1.33;;
13807;SDS011;40769;51.512;5.494;2024-01-15T07:44:45;1.52;;;1.42;;
13807;SDS011;40769;51.512;5.494;2024-01-15T07:47:12;1.55;;;1.45;;
13807;SDS011;40769;51.512;5.494;2024-01-15T07:49:37;1.30;;;1.20;;
13807;SDS011;40769;51.512;5.494;2024-01-15T07:52:03;1.73;;;1.63;;
13807;SDS011;40769;51.512;5.494;2024-01-15T07:54:30;2.30;;;2.10;;
13807;SDS011;40769;51.512;5.494;2024-01-15T07:57:00;2.55;;;2.35;;
13807;SDS011;40769;51.512;5.494;2024-01-15T07:59:28;2.10;;;2.00;;
13807;SDS011;40769;51.512;5.494;2024-01-15T08:01:53;2.58;;;2.38;;
13807;SDS011;40769;51.512;5.494;2024-01-15T08:04:19;2.42;;;2.22;;
13807;SDS011;40769;51.512;5.494;2024-01-15T08:06:45;2.55;;;2.35;;
13807;SDS011;40769;51.512;5.494;2024-01-15T08:09:11;2.08;;;1.98;;
13807;SDS011;40769;51.512;5.494;2024-01-15T08:11:41;2.00;;;1.90;;
13807;SDS011;40769;51.512;5.494;2024-01-15T08:14:10;2.05;;;1.95;;
13807;SDS011;40769;51.512;5.494;2024-01-15T08:16:36;2.20;;;2.05;;
13807;SDS011;40769;51.512;5.494;2024-01-15T08:19:02;2.17;;;1.98;;
13807;SDS011;40769;51.512;5.494;2024-01-15T08:21:28;2.70;;;2.50;;
13807;SDS011;40769;51.512;5.494;2024-01-15T08:23:56;2.70;;;2.50;;
13807;SDS011;40769;51.512;5.494;2024-01-15T08:26:22;2.72;;;2.53;;
13807;SDS011;40769;51.512;5.494;2024-01-15T08:28:48;2.72;;;2.53;;
13807;SDS011;40769;51.512;5.494;2024-01-15T08:31:13;2.58;;;2.38;;
13807;SDS011;40769;51.512;5.494;2024-01-15T08:33:42;2.92;;;2.72;;
13807;SDS011;40769;51.512;5.494;2024-01-15T08:36:09;2.97;;;2.67;;
13807;SDS011;40769;51.512;5.494;2024-01-15T08:38:37;3.13;;;2.92;;
13807;SDS011;40769;51.512;5.494;2024-01-15T08:41:03;2.85;;;2.65;;
13807;SDS011;40769;51.512;5.494;2024-01-15T08:43:29;2.63;;;2.42;;
13807;SDS011;40769;51.512;5.494;2024-01-15T08:45:56;2.83;;;2.63;;
13807;SDS011;40769;51.512;5.494;2024-01-15T08:48:22;2.67;;;2.47;;
13807;SDS011;40769;51.512;5.494;2024-01-15T08:50:48;3.08;;;2.88;;
13807;SDS011;40769;51.512;5.494;2024-01-15T08:53:14;2.30;;;2.20;;
13807;SDS011;40769;51.512;5.494;2024-01-15T08:55:40;2.60;;;2.40;;
13807;SDS011;40769;51.512;5.494;2024-01-15T08:58:07;2.20;;;2.10;;
13807;SDS011;40769;51.512;5.494;2024-01-15T09:00:34;2.33;;;2.13;;
13807;SDS011;40769;51.512;5.494;2024-01-15T09:03:00;1.70;;;1.60;;
13807;SDS011;40769;51.512;5.494;2024-01-15T09:05:25;1.77;;;1.67;;
13807;SDS011;40769;51.512;5.494;2024-01-15T09:07:51;1.70;;;1.30;;
13807;SDS011;40769;51.512;5.494;2024-01-15T09:10:17;1.45;;;1.30;;
13807;SDS011;40769;51.512;5.494;2024-01-15T09:12:44;1.80;;;1.48;;
13807;SDS011;40769;51.512;5.494;2024-01-15T09:15:10;1.00;;;0.88;;
13807;SDS011;40769;51.512;5.494;2024-01-15T09:17:35;4.10;;;1.20;;
13807;SDS011;40769;51.512;5.494;2024-01-15T09:20:01;1.88;;;1.17;;
13807;SDS011;40769;51.512;5.494;2024-01-15T09:22:29;2.35;;;0.90;;
13807;SDS011;40769;51.512;5.494;2024-01-15T09:24:55;1.27;;;0.90;;
13807;SDS011;40769;51.512;5.494;2024-01-15T09:27:20;3.65;;;0.90;;
13807;SDS011;40769;51.512;5.494;2024-01-15T09:29:46;1.05;;;0.80;;
13807;SDS011;40769;51.512;5.494;2024-01-15T09:32:12;2.00;;;0.90;;
13807;SDS011;40769;51.512;5.494;2024-01-15T09:34:38;1.67;;;0.90;;
13807;SDS011;40769;51.512;5.494;2024-01-15T09:37:04;1.17;;;0.57;;
13807;SDS011;40769;51.512;5.494;2024-01-15T09:39:30;1.10;;;0.80;;
13807;SDS011;40769;51.512;5.494;2024-01-15T09:41:57;1.15;;;0.50;;
13807;SDS011;40769;51.512;5.494;2024-01-15T09:44:23;1.92;;;0.60;;
13807;SDS011;40769;51.512;5.494;2024-01-15T09:46:49;3.00;;;1.00;;
13807;SDS011;40769;51.512;5.494;2024-01-15T09:49:18;1.90;;;0.80;;
13807;SDS011;40769;51.512;5.494;2024-01-15T09:51:44;1.75;;;0.70;;
13807;SDS011;40769;51.512;5.494;2024-01-15T09:54:10;1.40;;;0.95;;
13807;SDS011;40769;51.512;5.494;2024-01-15T09:56:38;1.25;;;0.73;;
13807;SDS011;40769;51.512;5.494;2024-01-15T09:59:04;1.27;;;0.80;;
13807;SDS011;40769;51.512;5.494;2024-01-15T10:01:33;1.33;;;0.70;;
13807;SDS011;40769;51.512;5.494;2024-01-15T10:04:03;1.40;;;1.02;;
13807;SDS011;40769;51.512;5.494;2024-01-15T10:06:28;1.38;;;0.73;;
13807;SDS011;40769;51.512;5.494;2024-01-15T10:08:56;1.65;;;0.90;;
13807;SDS011;40769;51.512;5.494;2024-01-15T10:11:25;1.80;;;0.80;;
13807;SDS011;40769;51.512;5.494;2024-01-15T10:13:51;2.88;;;0.93;;
13807;SDS011;40769;51.512;5.494;2024-01-15T10:16:21;1.52;;;0.85;;
13807;SDS011;40769;51.512;5.494;2024-01-15T10:18:50;1.33;;;0.70;;
13807;SDS011;40769;51.512;5.494;2024-01-15T10:21:17;2.30;;;1.00;;
13807;SDS011;40769;51.512;5.494;2024-01-15T10:23:42;1.95;;;1.08;;
13807;SDS011;40769;51.512;5.494;2024-01-15T10:26:09;3.15;;;1.00;;
13807;SDS011;40769;51.512;5.494;2024-01-15T10:28:36;1.60;;;1.00;;
13807;SDS011;40769;51.512;5.494;2024-01-15T10:31:02;2.70;;;1.30;;
13807;SDS011;40769;51.512;5.494;2024-01-15T10:33:29;2.97;;;1.38;;
13807;SDS011;40769;51.512;5.494;2024-01-15T10:35:56;1.13;;;0.98;;
13807;SDS011;40769;51.512;5.494;2024-01-15T10:38:23;2.58;;;1.40;;
13807;SDS011;40769;51.512;5.494;2024-01-15T10:40:53;1.95;;;1.40;;
13807;SDS011;40769;51.512;5.494;2024-01-15T10:43:19;8.98;;;2.72;;
13807;SDS011;40769;51.512;5.494;2024-01-15T10:45:46;2.70;;;1.75;;
13807;SDS011;40769;51.512;5.494;2024-01-15T10:48:16;3.17;;;1.83;;
13807;SDS011;40769;51.512;5.494;2024-01-15T10:50:42;3.05;;;2.25;;
13807;SDS011;40769;51.512;5.494;2024-01-15T10:53:13;1.77;;;1.45;;
13807;SDS011;40769;51.512;5.494;2024-01-15T10:55:40;2.85;;;2.03;;
13807;SDS011;40769;51.512;5.494;2024-01-15T10:58:07;2.00;;;1.40;;
13807;SDS011;40769;51.512;5.494;2024-01-15T11:00:34;2.05;;;1.42;;
13807;SDS011;40769;51.512;5.494;2024-01-15T11:03:02;2.95;;;1.10;;
13807;SDS011;40769;51.512;5.494;2024-01-15T11:05:33;1.95;;;1.55;;
13807;SDS011;40769;51.512;5.494;2024-01-15T11:08:04;1.30;;;0.93;;
13807;SDS011;40769;51.512;5.494;2024-01-15T11:10:38;2.72;;;1.20;;
13807;SDS011;40769;51.512;5.494;2024-01-15T11:13:04;1.42;;;1.10;;
13807;SDS011;40769;51.512;5.494;2024-01-15T11:15:32;1.55;;;0.98;;
13807;SDS011;40769;51.512;5.494;2024-01-15T11:18:22;1.42;;;0.75;;
13807;SDS011;40769;51.512;5.494;2024-01-15T11:23:45;1.52;;;0.88;;
13807;SDS011;40769;51.512;5.494;2024-01-15T11:29:09;1.90;;;1.00;;
13807;SDS011;40769;51.512;5.494;2024-01-15T11:37:16;1.67;;;0.93;;
13807;SDS011;40769;51.512;5.494;2024-01-15T11:39:42;0.88;;;0.70;;
13807;SDS011;40769;51.512;5.494;2024-01-15T11:42:09;1.10;;;0.73;;
13807;SDS011;40769;51.512;5.494;2024-01-15T11:44:36;1.90;;;0.80;;
13807;SDS011;40769;51.512;5.494;2024-01-15T11:47:04;0.57;;;0.55;;
13807;SDS011;40769;51.512;5.494;2024-01-15T11:52:18;1.30;;;0.80;;
13807;SDS011;40769;51.512;5.494;2024-01-15T11:54:49;0.70;;;0.70;;
13807;SDS011;40769;51.512;5.494;2024-01-15T11:57:49;0.88;;;0.52;;
13807;SDS011;40769;51.512;5.494;2024-01-15T12:00:16;1.05;;;0.90;;
13807;SDS011;40769;51.512;5.494;2024-01-15T12:02:43;0.80;;;0.80;;
13807;SDS011;40769;51.512;5.494;2024-01-15T12:05:12;1.30;;;0.90;;
13807;SDS011;40769;51.512;5.494;2024-01-15T12:07:39;2.38;;;1.00;;
13807;SDS011;40769;51.512;5.494;2024-01-15T12:10:12;1.23;;;1.00;;
13807;SDS011;40769;51.512;5.494;2024-01-15T12:12:48;1.00;;;0.90;;
13807;SDS011;40769;51.512;5.494;2024-01-15T12:15:29;0.82;;;0.75;;
13807;SDS011;40769;51.512;5.494;2024-01-15T12:17:57;1.98;;;1.10;;
13807;SDS011;40769;51.512;5.494;2024-01-15T12:20:24;1.25;;;1.00;;
13807;SDS011;40769;51.512;5.494;2024-01-15T12:22:51;1.70;;;1.45;;
13807;SDS011;40769;51.512;5.494;2024-01-15T12:25:17;1.67;;;1.10;;
13807;SDS011;40769;51.512;5.494;2024-01-15T12:27:44;1.33;;;1.02;;
13807;SDS011;40769;51.512;5.494;2024-01-15T12:30:10;1.35;;;1.20;;
13807;SDS011;40769;51.512;5.494;2024-01-15T12:32:37;1.20;;;1.00;;
13807;SDS011;40769;51.512;5.494;2024-01-15T12:35:03;1.83;;;1.40;;
13807;SDS011;40769;51.512;5.494;2024-01-15T12:37:29;1.08;;;0.98;;
13807;SDS011;40769;51.512;5.494;2024-01-15T12:39:55;1.42;;;1.33;;
13807;SDS011;40769;51.512;5.494;2024-01-15T12:42:21;3.22;;;1.50;;
13807;SDS011;40769;51.512;5.494;2024-01-15T12:44:47;1.30;;;1.20;;
13807;SDS011;40769;51.512;5.494;2024-01-15T12:47:12;1.30;;;1.20;;
13807;SDS011;40769;51.512;5.494;2024-01-15T12:49:39;2.17;;;1.80;;
13807;SDS011;40769;51.512;5.494;2024-01-15T12:52:07;1.55;;;1.20;;
13807;SDS011;40769;51.512;5.494;2024-01-15T12:54:35;1.45;;;1.35;;
13807;SDS011;40769;51.512;5.494;2024-01-15T12:57:00;1.35;;;1.10;;
13807;SDS011;40769;51.512;5.494;2024-01-15T12:59:26;39.38;;;6.63;;
13807;SDS011;40769;51.512;5.494;2024-01-15T13:01:52;1.90;;;1.40;;
13807;SDS011;40769;51.512;5.494;2024-01-15T13:04:21;2.90;;;1.33;;
13807;SDS011;40769;51.512;5.494;2024-01-15T13:06:49;1.25;;;1.10;;
13807;SDS011;40769;51.512;5.494;2024-01-15T13:09:18;2.10;;;1.23;;
13807;SDS011;40769;51.512;5.494;2024-01-15T13:11:44;0.90;;;0.90;;
13807;SDS011;40769;51.512;5.494;2024-01-15T13:14:10;1.95;;;1.13;;
13807;SDS011;40769;51.512;5.494;2024-01-15T13:16:39;1.10;;;0.95;;
13807;SDS011;40769;51.512;5.494;2024-01-15T13:19:06;1.77;;;1.25;;
13807;SDS011;40769;51.512;5.494;2024-01-15T13:21:33;1.20;;;1.10;;
13807;SDS011;40769;51.512;5.494;2024-01-15T13:23:59;1.10;;;1.10;;
13807;SDS011;40769;51.512;5.494;2024-01-15T13:26:24;1.50;;;1.40;;
13807;SDS011;40769;51.512;5.494;2024-01-15T13:28:50;1.40;;;1.30;;
13807;SDS011;40769;51.512;5.494;2024-01-15T13:31:16;1.80;;;1.70;;
13807;SDS011;40769;51.512;5.494;2024-01-15T13:33:41;3.60;;;1.70;;
13807;SDS011;40769;51.512;5.494;2024-01-15T13:36:10;2.05;;;1.90;;
13807;SDS011;40769;51.512;5.494;2024-01-15T13:38:38;1.40;;;1.30;;
13807;SDS011;40769;51.512;5.494;2024-01-15T13:41:04;1.80;;;1.70;;
13807;SDS011;40769;51.512;5.494;2024-01-15T13:43:31;1.48;;;1.38;;
13807;SDS011;40769;51.512;5.494;2024-01-15T13:45:58;1.60;;;1.50;;
13807;SDS011;40769;51.512;5.494;2024-01-15T13:48:24;1.48;;;1.20;;
13807;SDS011;40769;51.512;5.494;2024-01-15T13:50:51;1.30;;;1.20;;
13807;SDS011;40769;51.512;5.494;2024-01-15T13:53:17;1.10;;;1.00;;
13807;SDS011;40769;51.512;5.494;2024-01-15T13:55:44;1.33;;;0.90;;
13807;SDS011;40769;51.512;5.494;2024-01-15T13:58:09;1.83;;;1.13;;
13807;SDS011;40769;51.512;5.494;2024-01-15T14:00:39;1.27;;;1.17;;
13807;SDS011;40769;51.512;5.494;2024-01-15T14:03:05;1.25;;;1.15;;
13807;SDS011;40769;51.512;5.494;2024-01-15T14:05:33;1.60;;;1.50;;
13807;SDS011;40769;51.512;5.494;2024-01-15T14:07:59;2.08;;;1.30;;
13807;SDS011;40769;51.512;5.494;2024-01-15T14:10:25;2.30;;;1.55;;
13807;SDS011;40769;51.512;5.494;2024-01-15T14:12:51;1.50;;;1.40;;
13807;SDS011;40769;51.512;5.494;2024-01-15T14:15:17;1.50;;;1.40;;
13807;SDS011;40769;51.512;5.494;2024-01-15T14:17:46;2.22;;;1.60;;
13807;SDS011;40769;51.512;5.494;2024-01-15T14:20:11;1.63;;;1.52;;
13807;SDS011;40769;51.512;5.494;2024-01-15T14:22:37;1.85;;;1.75;;
13807;SDS011;40769;51.512;5.494;2024-01-15T14:25:03;2.15;;;1.95;;
13807;SDS011;40769;51.512;5.494;2024-01-15T14:27:29;1.92;;;1.60;;
13807;SDS011;40769;51.512;5.494;2024-01-15T14:29:55;1.60;;;1.50;;
13807;SDS011;40769;51.512;5.494;2024-01-15T14:32:23;1.88;;;1.35;;
13807;SDS011;40769;51.512;5.494;2024-01-15T14:34:49;1.45;;;1.13;;
13807;SDS011;40769;51.512;5.494;2024-01-15T14:37:14;2.53;;;1.27;;
13807;SDS011;40769;51.512;5.494;2024-01-15T14:39:43;1.20;;;1.02;;
13807;SDS011;40769;51.512;5.494;2024-01-15T14:42:09;1.08;;;0.80;;
13807;SDS011;40769;51.512;5.494;2024-01-15T14:44:37;1.13;;;1.00;;
13807;SDS011;40769;51.512;5.494;2024-01-15T14:47:05;1.88;;;1.17;;
13807;SDS011;40769;51.512;5.494;2024-01-15T14:49:31;2.08;;;1.17;;
13807;SDS011;40769;51.512;5.494;2024-01-15T14:51:57;1.88;;;1.10;;
13807;SDS011;40769;51.512;5.494;2024-01-15T14:54:23;3.13;;;1.15;;
13807;SDS011;40769;51.512;5.494;2024-01-15T14:56:49;1.55;;;1.02;;